sensor_id;sensor_type;location;lat;lon;timestamp;P1;durP1;ratioP1;P2;durP2;ratioP2
21128;SDS011;10722;51.910;8.352;2024-02-28T00:00:50;87.33;;;41.90;;
21128;SDS011;10722;51.910;8.352;2024-02-28T00:03:35;83.43;;;41.33;;
21128;SDS011;10722;51.910;8.352;2024-02-28T00:06:20;78.93;;;38.87;;
21128;SDS011;10722;51.910;8.352;2024-02-28T00:09:06;82.07;;;41.33;;
21128;SDS011;10722;51.910;8.352;2024-02-28T00:11:51;70.83;;;36.63;;
21128;SDS011;10722;51.910;8.352;2024-02-28T00:14:36;67.47;;;35.37;;
21128;SDS011;10722;51.910;8.352;2024-02-28T00:17:21;73.77;;;34.13;;
21128;SDS011;10722;51.910;8.352;2024-02-28T00:20:06;64.87;;;32.87;;
21128;SDS011;10722;51.910;8.352;2024-02-28T00:22:52;63.30;;;33.10;;
21128;SDS011;10722;51.910;8.352;2024-02-28T00:25:37;64.33;;;33.30;;
21128;SDS011;10722;51.910;8.352;2024-02-28T00:28:22;72.97;;;35.17;;
21128;SDS011;10722;51.910;8.352;2024-02-28T00:31:07;69.87;;;34.93;;
21128;SDS011;10722;51.910;8.352;2024-02-28T00:33:52;76.23;;;36.07;;
21128;SDS011;10722;51.910;8.352;2024-02-28T00:36:37;82.47;;;38.73;;
21128;SDS011;10722;51.910;8.352;2024-02-28T00:39:39;74.77;;;36.83;;
21128;SDS011;10722;51.910;8.352;2024-02-28T00:42:24;71.37;;;35.63;;
21128;SDS011;10722;51.910;8.352;2024-02-28T00:45:10;76.03;;;37.07;;
21128;SDS011;10722;51.910;8.352;2024-02-28T00:47:55;66.33;;;32.97;;
21128;SDS011;10722;51.910;8.352;2024-02-28T00:50:40;70.03;;;35.30;;
21128;SDS011;10722;51.910;8.352;2024-02-28T00:53:25;61.50;;;32.27;;
21128;SDS011;10722;51.910;8.352;2024-02-28T00:56:10;63.67;;;32.27;;
21128;SDS011;10722;51.910;8.352;2024-02-28T00:58:55;68.47;;;34.70;;
21128;SDS011;10722;51.910;8.352;2024-02-28T01:01:40;74.10;;;36.13;;
21128;SDS011;10722;51.910;8.352;2024-02-28T01:04:25;72.70;;;36.10;;
21128;SDS011;10722;51.910;8.352;2024-02-28T01:07:10;71.27;;;32.57;;
21128;SDS011;10722;51.910;8.352;2024-02-28T01:09:55;64.07;;;32.13;;
21128;SDS011;10722;51.910;8.352;2024-02-28T01:12:41;68.23;;;33.47;;
21128;SDS011;10722;51.910;8.352;2024-02-28T01:15:26;82.50;;;36.23;;
21128;SDS011;10722;51.910;8.352;2024-02-28T01:18:11;71.17;;;35.70;;
21128;SDS011;10722;51.910;8.352;2024-02-28T01:20:56;70.87;;;33.80;;
21128;SDS011;10722;51.910;8.352;2024-02-28T01:23:42;74.63;;;36.50;;
21128;SDS011;10722;51.910;8.352;2024-02-28T01:26:26;70.20;;;34.90;;
21128;SDS011;10722;51.910;8.352;2024-02-28T01:29:12;77.87;;;36.60;;
21128;SDS011;10722;51.910;8.352;2024-02-28T01:31:57;76.60;;;36.73;;
21128;SDS011;10722;51.910;8.352;2024-02-28T01:34:42;74.27;;;35.80;;
21128;SDS011;10722;51.910;8.352;2024-02-28T01:37:27;81.83;;;36.73;;
21128;SDS011;10722;51.910;8.352;2024-02-28T01:40:12;82.30;;;37.00;;
21128;SDS011;10722;51.910;8.352;2024-02-28T01:43:07;84.70;;;38.80;;
21128;SDS011;10722;51.910;8.352;2024-02-28T01:45:53;83.73;;;37.63;;
21128;SDS011;10722;51.910;8.352;2024-02-28T01:48:38;78.87;;;38.53;;
21128;SDS011;10722;51.910;8.352;2024-02-28T01:51:24;78.03;;;37.43;;
21128;SDS011;10722;51.910;8.352;2024-02-28T01:54:11;74.93;;;37.30;;
21128;SDS011;10722;51.910;8.352;2024-02-28T01:56:56;74.53;;;37.03;;
21128;SDS011;10722;51.910;8.352;2024-02-28T01:59:42;182.57;;;39.43;;
21128;SDS011;10722;51.910;8.352;2024-02-28T02:02:27;246.87;;;36.97;;
21128;SDS011;10722;51.910;8.352;2024-02-28T02:05:12;171.93;;;32.93;;
21128;SDS011;10722;51.910;8.352;2024-02-28T02:07:57;375.63;;;40.60;;
21128;SDS011;10722;51.910;8.352;2024-02-28T02:10:43;180.17;;;33.27;;
21128;SDS011;10722;51.910;8.352;2024-02-28T02:13:28;298.63;;;39.70;;
21128;SDS011;10722;51.910;8.352;2024-02-28T02:16:13;249.37;;;39.07;;
21128;SDS011;10722;51.910;8.352;2024-02-28T02:18:58;225.80;;;38.00;;
21128;SDS011;10722;51.910;8.352;2024-02-28T02:21:48;483.23;;;44.40;;
21128;SDS011;10722;51.910;8.352;2024-02-28T02:24:36;519.53;;;51.13;;
21128;SDS011;10722;51.910;8.352;2024-02-28T02:27:23;193.13;;;40.57;;
21128;SDS011;10722;51.910;8.352;2024-02-28T02:30:09;721.63;;;57.20;;
21128;SDS011;10722;51.910;8.352;2024-02-28T02:32:55;478.20;;;45.30;;
21128;SDS011;10722;51.910;8.352;2024-02-28T02:35:40;706.67;;;56.23;;
21128;SDS011;10722;51.910;8.352;2024-02-28T02:38:25;440.43;;;48.80;;
21128;SDS011;10722;51.910;8.352;2024-02-28T02:41:10;341.60;;;43.43;;
21128;SDS011;10722;51.910;8.352;2024-02-28T02:43:55;683.83;;;60.50;;
21128;SDS011;10722;51.910;8.352;2024-02-28T02:46:40;555.70;;;53.33;;
21128;SDS011;10722;51.910;8.352;2024-02-28T02:49:25;636.80;;;58.33;;
21128;SDS011;10722;51.910;8.352;2024-02-28T02:52:10;309.57;;;44.03;;
21128;SDS011;10722;51.910;8.352;2024-02-28T02:54:54;377.13;;;47.73;;
21128;SDS011;10722;51.910;8.352;2024-02-28T02:57:39;500.73;;;50.27;;
21128;SDS011;10722;51.910;8.352;2024-02-28T03:00:25;250.27;;;41.10;;
21128;SDS011;10722;51.910;8.352;2024-02-28T03:03:10;825.47;;;71.13;;
21128;SDS011;10722;51.910;8.352;2024-02-28T03:05:55;417.30;;;51.27;;
21128;SDS011;10722;51.910;8.352;2024-02-28T03:08:40;896.87;;;72.20;;
21128;SDS011;10722;51.910;8.352;2024-02-28T03:11:25;597.27;;;56.87;;
21128;SDS011;10722;51.910;8.352;2024-02-28T03:14:10;415.90;;;49.47;;
21128;SDS011;10722;51.910;8.352;2024-02-28T03:16:55;438.80;;;48.80;;
21128;SDS011;10722;51.910;8.352;2024-02-28T03:19:41;567.17;;;55.33;;
21128;SDS011;10722;51.910;8.352;2024-02-28T03:22:26;727.07;;;67.27;;
21128;SDS011;10722;51.910;8.352;2024-02-28T03:25:11;602.13;;;57.60;;
21128;SDS011;10722;51.910;8.352;2024-02-28T03:27:56;496.50;;;52.30;;
21128;SDS011;10722;51.910;8.352;2024-02-28T03:30:42;678.73;;;67.70;;
21128;SDS011;10722;51.910;8.352;2024-02-28T03:33:27;548.57;;;63.53;;
21128;SDS011;10722;51.910;8.352;2024-02-28T03:36:13;625.20;;;65.77;;
21128;SDS011;10722;51.910;8.352;2024-02-28T03:38:58;364.10;;;58.17;;
21128;SDS011;10722;51.910;8.352;2024-02-28T03:41:43;861.47;;;76.67;;
21128;SDS011;10722;51.910;8.352;2024-02-28T03:44:28;1000.23;;;84.03;;
21128;SDS011;10722;51.910;8.352;2024-02-28T03:47:14;661.13;;;67.23;;
21128;SDS011;10722;51.910;8.352;2024-02-28T03:49:58;781.97;;;70.97;;
21128;SDS011;10722;51.910;8.352;2024-02-28T03:52:43;618.57;;;63.43;;
21128;SDS011;10722;51.910;8.352;2024-02-28T03:55:28;770.67;;;69.47;;
21128;SDS011;10722;51.910;8.352;2024-02-28T03:58:13;806.97;;;72.40;;
21128;SDS011;10722;51.910;8.352;2024-02-28T04:00:58;715.90;;;66.50;;
21128;SDS011;10722;51.910;8.352;2024-02-28T04:03:44;626.10;;;62.83;;
21128;SDS011;10722;51.910;8.352;2024-02-28T04:06:29;440.47;;;56.23;;
21128;SDS011;10722;51.910;8.352;2024-02-28T04:09:14;625.87;;;64.07;;
21128;SDS011;10722;51.910;8.352;2024-02-28T04:11:59;759.60;;;73.67;;
21128;SDS011;10722;51.910;8.352;2024-02-28T04:14:44;748.70;;;74.80;;
21128;SDS011;10722;51.910;8.352;2024-02-28T04:17:29;491.57;;;57.50;;
21128;SDS011;10722;51.910;8.352;2024-02-28T04:20:14;601.90;;;61.00;;
21128;SDS011;10722;51.910;8.352;2024-02-28T04:22:59;549.30;;;61.37;;
21128;SDS011;10722;51.910;8.352;2024-02-28T04:25:44;704.43;;;62.90;;
21128;SDS011;10722;51.910;8.352;2024-02-28T04:28:29;475.07;;;53.93;;
21128;SDS011;10722;51.910;8.352;2024-02-28T04:31:14;402.83;;;55.27;;
21128;SDS011;10722;51.910;8.352;2024-02-28T04:33:59;381.40;;;55.27;;
21128;SDS011;10722;51.910;8.352;2024-02-28T04:36:44;612.70;;;65.10;;
21128;SDS011;10722;51.910;8.352;2024-02-28T04:39:29;499.33;;;59.73;;
21128;SDS011;10722;51.910;8.352;2024-02-28T04:42:15;531.17;;;61.50;;
21128;SDS011;10722;51.910;8.352;2024-02-28T04:45:01;1099.07;;;92.43;;
21128;SDS011;10722;51.910;8.352;2024-02-28T04:47:46;575.03;;;63.30;;
21128;SDS011;10722;51.910;8.352;2024-02-28T04:50:30;766.90;;;76.57;;
21128;SDS011;10722;51.910;8.352;2024-02-28T04:53:15;545.50;;;63.17;;
21128;SDS011;10722;51.910;8.352;2024-02-28T04:56:00;761.37;;;72.77;;
21128;SDS011;10722;51.910;8.352;2024-02-28T04:58:45;672.40;;;67.33;;
21128;SDS011;10722;51.910;8.352;2024-02-28T05:01:30;693.37;;;65.37;;
21128;SDS011;10722;51.910;8.352;2024-02-28T05:04:15;513.07;;;55.27;;
21128;SDS011;10722;51.910;8.352;2024-02-28T05:07:00;378.27;;;49.10;;
21128;SDS011;10722;51.910;8.352;2024-02-28T05:09:45;649.63;;;62.83;;
21128;SDS011;10722;51.910;8.352;2024-02-28T05:12:31;473.33;;;50.00;;
21128;SDS011;10722;51.910;8.352;2024-02-28T05:15:16;340.17;;;45.23;;
21128;SDS011;10722;51.910;8.352;2024-02-28T05:18:01;400.20;;;47.93;;
21128;SDS011;10722;51.910;8.352;2024-02-28T05:20:45;479.80;;;52.50;;
21128;SDS011;10722;51.910;8.352;2024-02-28T05:23:30;478.23;;;50.33;;
21128;SDS011;10722;51.910;8.352;2024-02-28T05:26:15;431.43;;;45.33;;
21128;SDS011;10722;51.910;8.352;2024-02-28T05:29:00;492.73;;;53.67;;
21128;SDS011;10722;51.910;8.352;2024-02-28T05:31:45;535.57;;;53.13;;
21128;SDS011;10722;51.910;8.352;2024-02-28T05:34:30;567.37;;;56.50;;
21128;SDS011;10722;51.910;8.352;2024-02-28T05:37:16;517.70;;;56.80;;
21128;SDS011;10722;51.910;8.352;2024-02-28T05:40:02;583.47;;;58.37;;
21128;SDS011;10722;51.910;8.352;2024-02-28T05:42:47;494.20;;;53.50;;
21128;SDS011;10722;51.910;8.352;2024-02-28T05:45:32;512.43;;;57.53;;
21128;SDS011;10722;51.910;8.352;2024-02-28T05:48:18;639.40;;;62.30;;
21128;SDS011;10722;51.910;8.352;2024-02-28T05:51:03;477.07;;;59.50;;
21128;SDS011;10722;51.910;8.352;2024-02-28T05:53:48;427.90;;;52.83;;
21128;SDS011;10722;51.910;8.352;2024-02-28T05:56:33;489.80;;;54.80;;
21128;SDS011;10722;51.910;8.352;2024-02-28T05:59:18;633.57;;;61.00;;
21128;SDS011;10722;51.910;8.352;2024-02-28T06:02:03;558.73;;;60.00;;
21128;SDS011;10722;51.910;8.352;2024-02-28T06:04:48;619.70;;;66.20;;
21128;SDS011;10722;51.910;8.352;2024-02-28T06:07:33;553.97;;;63.87;;
21128;SDS011;10722;51.910;8.352;2024-02-28T06:10:18;403.77;;;55.27;;
21128;SDS011;10722;51.910;8.352;2024-02-28T06:13:03;478.83;;;62.90;;
21128;SDS011;10722;51.910;8.352;2024-02-28T06:15:49;495.60;;;61.00;;
21128;SDS011;10722;51.910;8.352;2024-02-28T06:18:34;446.40;;;57.30;;
21128;SDS011;10722;51.910;8.352;2024-02-28T06:21:21;378.70;;;57.77;;
21128;SDS011;10722;51.910;8.352;2024-02-28T06:24:06;386.10;;;54.87;;
21128;SDS011;10722;51.910;8.352;2024-02-28T06:26:51;420.07;;;60.17;;
21128;SDS011;10722;51.910;8.352;2024-02-28T06:29:36;260.03;;;54.43;;
21128;SDS011;10722;51.910;8.352;2024-02-28T06:32:23;521.80;;;66.80;;
21128;SDS011;10722;51.910;8.352;2024-02-28T06:35:08;609.07;;;68.90;;
21128;SDS011;10722;51.910;8.352;2024-02-28T06:37:54;438.30;;;56.53;;
21128;SDS011;10722;51.910;8.352;2024-02-28T06:40:38;505.93;;;59.13;;
21128;SDS011;10722;51.910;8.352;2024-02-28T06:43:24;544.97;;;67.20;;
21128;SDS011;10722;51.910;8.352;2024-02-28T06:46:09;534.13;;;61.57;;
21128;SDS011;10722;51.910;8.352;2024-02-28T06:48:54;493.93;;;66.60;;
21128;SDS011;10722;51.910;8.352;2024-02-28T06:51:39;615.13;;;75.83;;
21128;SDS011;10722;51.910;8.352;2024-02-28T06:54:25;530.53;;;73.10;;
21128;SDS011;10722;51.910;8.352;2024-02-28T06:57:09;504.30;;;64.67;;
21128;SDS011;10722;51.910;8.352;2024-02-28T06:59:55;544.17;;;66.00;;
21128;SDS011;10722;51.910;8.352;2024-02-28T07:02:39;543.33;;;70.07;;
21128;SDS011;10722;51.910;8.352;2024-02-28T07:05:25;594.40;;;72.77;;
21128;SDS011;10722;51.910;8.352;2024-02-28T07:08:10;689.57;;;79.37;;
21128;SDS011;10722;51.910;8.352;2024-02-28T07:10:55;595.00;;;77.70;;
21128;SDS011;10722;51.910;8.352;2024-02-28T07:13:41;394.27;;;62.97;;
21128;SDS011;10722;51.910;8.352;2024-02-28T07:16:26;407.53;;;61.37;;
21128;SDS011;10722;51.910;8.352;2024-02-28T07:19:11;410.47;;;62.47;;
21128;SDS011;10722;51.910;8.352;2024-02-28T07:21:56;529.57;;;72.53;;
21128;SDS011;10722;51.910;8.352;2024-02-28T07:24:41;540.80;;;74.00;;
21128;SDS011;10722;51.910;8.352;2024-02-28T07:27:26;480.23;;;68.73;;
21128;SDS011;10722;51.910;8.352;2024-02-28T07:30:12;423.43;;;62.03;;
21128;SDS011;10722;51.910;8.352;2024-02-28T07:32:57;446.17;;;64.83;;
21128;SDS011;10722;51.910;8.352;2024-02-28T07:35:49;577.30;;;77.17;;
21128;SDS011;10722;51.910;8.352;2024-02-28T07:38:36;389.47;;;65.17;;
21128;SDS011;10722;51.910;8.352;2024-02-28T07:41:22;430.90;;;68.40;;
21128;SDS011;10722;51.910;8.352;2024-02-28T07:44:10;436.03;;;70.20;;
21128;SDS011;10722;51.910;8.352;2024-02-28T07:46:54;460.43;;;68.60;;
21128;SDS011;10722;51.910;8.352;2024-02-28T07:49:40;498.90;;;68.83;;
21128;SDS011;10722;51.910;8.352;2024-02-28T07:52:25;441.80;;;66.97;;
21128;SDS011;10722;51.910;8.352;2024-02-28T07:55:10;447.43;;;69.27;;
21128;SDS011;10722;51.910;8.352;2024-02-28T07:57:55;388.40;;;62.63;;
21128;SDS011;10722;51.910;8.352;2024-02-28T08:00:40;432.90;;;67.90;;
21128;SDS011;10722;51.910;8.352;2024-02-28T08:03:26;288.97;;;62.97;;
21128;SDS011;10722;51.910;8.352;2024-02-28T08:06:11;312.77;;;64.60;;
21128;SDS011;10722;51.910;8.352;2024-02-28T08:08:56;460.87;;;68.33;;
21128;SDS011;10722;51.910;8.352;2024-02-28T08:11:41;410.40;;;65.40;;
21128;SDS011;10722;51.910;8.352;2024-02-28T08:14:26;340.10;;;66.27;;
21128;SDS011;10722;51.910;8.352;2024-02-28T08:17:12;332.30;;;64.50;;
21128;SDS011;10722;51.910;8.352;2024-02-28T08:19:57;360.37;;;64.10;;
21128;SDS011;10722;51.910;8.352;2024-02-28T08:22:42;317.77;;;64.17;;
21128;SDS011;10722;51.910;8.352;2024-02-28T08:25:27;298.30;;;60.57;;
21128;SDS011;10722;51.910;8.352;2024-02-28T08:28:12;295.63;;;60.90;;
21128;SDS011;10722;51.910;8.352;2024-02-28T08:30:57;320.60;;;61.20;;
21128;SDS011;10722;51.910;8.352;2024-02-28T08:33:43;302.97;;;59.27;;
21128;SDS011;10722;51.910;8.352;2024-02-28T08:36:28;302.43;;;60.80;;
21128;SDS011;10722;51.910;8.352;2024-02-28T08:39:13;327.20;;;60.33;;
21128;SDS011;10722;51.910;8.352;2024-02-28T08:41:58;301.07;;;61.60;;
21128;SDS011;10722;51.910;8.352;2024-02-28T08:44:43;314.20;;;62.10;;
21128;SDS011;10722;51.910;8.352;2024-02-28T08:47:29;311.03;;;62.83;;
21128;SDS011;10722;51.910;8.352;2024-02-28T08:50:15;329.50;;;63.27;;
21128;SDS011;10722;51.910;8.352;2024-02-28T08:53:01;411.50;;;68.77;;
21128;SDS011;10722;51.910;8.352;2024-02-28T08:55:46;383.30;;;67.90;;
21128;SDS011;10722;51.910;8.352;2024-02-28T08:58:31;371.10;;;68.57;;
21128;SDS011;10722;51.910;8.352;2024-02-28T09:01:16;343.03;;;65.63;;
21128;SDS011;10722;51.910;8.352;2024-02-28T09:04:02;393.57;;;68.30;;
21128;SDS011;10722;51.910;8.352;2024-02-28T09:06:47;375.50;;;69.13;;
21128;SDS011;10722;51.910;8.352;2024-02-28T09:09:32;352.40;;;66.60;;
21128;SDS011;10722;51.910;8.352;2024-02-28T09:12:17;344.67;;;67.93;;
21128;SDS011;10722;51.910;8.352;2024-02-28T09:15:02;344.77;;;66.73;;
21128;SDS011;10722;51.910;8.352;2024-02-28T09:17:48;342.73;;;66.93;;
21128;SDS011;10722;51.910;8.352;2024-02-28T09:20:33;280.20;;;62.80;;
21128;SDS011;10722;51.910;8.352;2024-02-28T09:23:18;364.40;;;68.03;;
21128;SDS011;10722;51.910;8.352;2024-02-28T09:26:03;411.60;;;71.70;;
21128;SDS011;10722;51.910;8.352;2024-02-28T09:28:49;292.63;;;71.23;;
21128;SDS011;10722;51.910;8.352;2024-02-28T09:31:34;415.50;;;70.20;;
21128;SDS011;10722;51.910;8.352;2024-02-28T09:34:19;339.47;;;61.77;;
21128;SDS011;10722;51.910;8.352;2024-02-28T09:37:04;330.77;;;59.57;;
21128;SDS011;10722;51.910;8.352;2024-02-28T09:39:50;326.17;;;60.67;;
21128;SDS011;10722;51.910;8.352;2024-02-28T09:42:36;371.93;;;66.43;;
21128;SDS011;10722;51.910;8.352;2024-02-28T09:45:21;431.60;;;68.53;;
21128;SDS011;10722;51.910;8.352;2024-02-28T09:48:07;365.07;;;65.80;;
21128;SDS011;10722;51.910;8.352;2024-02-28T09:50:54;351.23;;;65.37;;
21128;SDS011;10722;51.910;8.352;2024-02-28T09:53:40;336.77;;;63.43;;
21128;SDS011;10722;51.910;8.352;2024-02-28T09:56:25;301.73;;;58.13;;
21128;SDS011;10722;51.910;8.352;2024-02-28T09:59:11;317.60;;;61.20;;
21128;SDS011;10722;51.910;8.352;2024-02-28T10:01:57;322.77;;;61.43;;
21128;SDS011;10722;51.910;8.352;2024-02-28T10:04:42;349.40;;;65.00;;
21128;SDS011;10722;51.910;8.352;2024-02-28T10:07:27;339.23;;;61.70;;
21128;SDS011;10722;51.910;8.352;2024-02-28T10:10:12;303.00;;;63.43;;
21128;SDS011;10722;51.910;8.352;2024-02-28T10:12:57;281.80;;;60.00;;
21128;SDS011;10722;51.910;8.352;2024-02-28T10:15:43;279.30;;;60.57;;
21128;SDS011;10722;51.910;8.352;2024-02-28T10:18:28;293.90;;;61.43;;
21128;SDS011;10722;51.910;8.352;2024-02-28T10:21:13;278.80;;;62.20;;
21128;SDS011;10722;51.910;8.352;2024-02-28T10:23:58;263.57;;;60.23;;
21128;SDS011;10722;51.910;8.352;2024-02-28T10:26:48;254.93;;;58.67;;
21128;SDS011;10722;51.910;8.352;2024-02-28T10:29:33;259.97;;;59.50;;
21128;SDS011;10722;51.910;8.352;2024-02-28T10:32:18;226.00;;;57.27;;
21128;SDS011;10722;51.910;8.352;2024-02-28T10:35:03;204.57;;;50.37;;
21128;SDS011;10722;51.910;8.352;2024-02-28T10:37:53;206.97;;;54.60;;
21128;SDS011;10722;51.910;8.352;2024-02-28T10:40:41;213.13;;;53.63;;
21128;SDS011;10722;51.910;8.352;2024-02-28T10:43:30;169.50;;;47.53;;
21128;SDS011;10722;51.910;8.352;2024-02-28T10:46:15;174.43;;;49.87;;
21128;SDS011;10722;51.910;8.352;2024-02-28T10:49:20;182.87;;;48.97;;
21128;SDS011;10722;51.910;8.352;2024-02-28T10:52:05;172.10;;;50.93;;
21128;SDS011;10722;51.910;8.352;2024-02-28T10:54:54;155.97;;;46.43;;
21128;SDS011;10722;51.910;8.352;2024-02-28T10:57:39;148.07;;;46.30;;
21128;SDS011;10722;51.910;8.352;2024-02-28T11:00:25;156.90;;;49.30;;
21128;SDS011;10722;51.910;8.352;2024-02-28T11:03:11;164.37;;;50.03;;
21128;SDS011;10722;51.910;8.352;2024-02-28T11:06:00;156.03;;;48.50;;
21128;SDS011;10722;51.910;8.352;2024-02-28T11:08:46;158.87;;;50.10;;
21128;SDS011;10722;51.910;8.352;2024-02-28T11:11:31;167.10;;;50.83;;
21128;SDS011;10722;51.910;8.352;2024-02-28T11:14:17;165.70;;;49.03;;
21128;SDS011;10722;51.910;8.352;2024-02-28T11:17:03;166.47;;;52.47;;
21128;SDS011;10722;51.910;8.352;2024-02-28T11:19:49;151.57;;;50.13;;
21128;SDS011;10722;51.910;8.352;2024-02-28T11:22:34;134.00;;;45.87;;
21128;SDS011;10722;51.910;8.352;2024-02-28T11:25:20;126.20;;;46.27;;
21128;SDS011;10722;51.910;8.352;2024-02-28T11:28:05;123.37;;;44.70;;
21128;SDS011;10722;51.910;8.352;2024-02-28T11:30:50;133.63;;;45.13;;
21128;SDS011;10722;51.910;8.352;2024-02-28T11:33:35;125.67;;;43.67;;
21128;SDS011;10722;51.910;8.352;2024-02-28T11:36:21;120.07;;;42.47;;
21128;SDS011;10722;51.910;8.352;2024-02-28T11:39:07;125.77;;;45.03;;
21128;SDS011;10722;51.910;8.352;2024-02-28T11:41:52;117.00;;;43.93;;
21128;SDS011;10722;51.910;8.352;2024-02-28T11:44:37;117.33;;;43.77;;
21128;SDS011;10722;51.910;8.352;2024-02-28T11:47:22;112.60;;;43.47;;
21128;SDS011;10722;51.910;8.352;2024-02-28T11:50:08;110.93;;;42.90;;
21128;SDS011;10722;51.910;8.352;2024-02-28T11:52:55;116.67;;;44.23;;
21128;SDS011;10722;51.910;8.352;2024-02-28T11:55:39;114.10;;;42.20;;
21128;SDS011;10722;51.910;8.352;2024-02-28T11:58:24;114.83;;;45.47;;
21128;SDS011;10722;51.910;8.352;2024-02-28T12:01:09;105.67;;;43.20;;
21128;SDS011;10722;51.910;8.352;2024-02-28T12:03:56;107.57;;;43.53;;
21128;SDS011;10722;51.910;8.352;2024-02-28T12:06:42;107.40;;;43.17;;
21128;SDS011;10722;51.910;8.352;2024-02-28T12:09:28;111.97;;;43.90;;
21128;SDS011;10722;51.910;8.352;2024-02-28T12:12:29;108.20;;;44.60;;
21128;SDS011;10722;51.910;8.352;2024-02-28T12:15:14;104.23;;;43.17;;
21128;SDS011;10722;51.910;8.352;2024-02-28T12:17:59;106.20;;;43.57;;
21128;SDS011;10722;51.910;8.352;2024-02-28T12:20:44;94.13;;;42.13;;
21128;SDS011;10722;51.910;8.352;2024-02-28T12:23:29;96.77;;;41.93;;
21128;SDS011;10722;51.910;8.352;2024-02-28T12:26:16;100.63;;;44.90;;
21128;SDS011;10722;51.910;8.352;2024-02-28T12:29:03;99.30;;;43.30;;
21128;SDS011;10722;51.910;8.352;2024-02-28T12:31:48;100.40;;;44.37;;
21128;SDS011;10722;51.910;8.352;2024-02-28T12:34:33;103.53;;;46.97;;
21128;SDS011;10722;51.910;8.352;2024-02-28T12:37:18;99.27;;;44.63;;
21128;SDS011;10722;51.910;8.352;2024-02-28T12:40:03;95.93;;;43.23;;
21128;SDS011;10722;51.910;8.352;2024-02-28T12:42:49;99.37;;;44.33;;
21128;SDS011;10722;51.910;8.352;2024-02-28T12:45:34;90.53;;;41.43;;
21128;SDS011;10722;51.910;8.352;2024-02-28T12:48:19;98.57;;;44.20;;
21128;SDS011;10722;51.910;8.352;2024-02-28T12:51:04;93.47;;;42.00;;
21128;SDS011;10722;51.910;8.352;2024-02-28T12:53:50;87.00;;;40.60;;
21128;SDS011;10722;51.910;8.352;2024-02-28T12:56:37;77.50;;;40.10;;
21128;SDS011;10722;51.910;8.352;2024-02-28T12:59:22;78.53;;;38.70;;
21128;SDS011;10722;51.910;8.352;2024-02-28T13:02:08;82.33;;;39.57;;
21128;SDS011;10722;51.910;8.352;2024-02-28T13:04:54;80.70;;;39.13;;
21128;SDS011;10722;51.910;8.352;2024-02-28T13:07:39;77.73;;;38.27;;
21128;SDS011;10722;51.910;8.352;2024-02-28T13:10:24;70.40;;;36.47;;
21128;SDS011;10722;51.910;8.352;2024-02-28T13:13:09;66.53;;;34.87;;
21128;SDS011;10722;51.910;8.352;2024-02-28T13:15:55;70.70;;;36.33;;
21128;SDS011;10722;51.910;8.352;2024-02-28T13:18:40;70.20;;;35.53;;
21128;SDS011;10722;51.910;8.352;2024-02-28T13:21:25;71.03;;;36.30;;
21128;SDS011;10722;51.910;8.352;2024-02-28T13:24:10;63.90;;;33.53;;
21128;SDS011;10722;51.910;8.352;2024-02-28T13:26:55;60.03;;;32.83;;
21128;SDS011;10722;51.910;8.352;2024-02-28T13:29:40;62.47;;;34.70;;
21128;SDS011;10722;51.910;8.352;2024-02-28T13:32:25;59.50;;;32.63;;
21128;SDS011;10722;51.910;8.352;2024-02-28T13:35:10;64.17;;;34.03;;
21128;SDS011;10722;51.910;8.352;2024-02-28T13:37:55;59.23;;;33.00;;
21128;SDS011;10722;51.910;8.352;2024-02-28T13:40:40;55.33;;;31.33;;
21128;SDS011;10722;51.910;8.352;2024-02-28T13:43:25;57.70;;;32.27;;
21128;SDS011;10722;51.910;8.352;2024-02-28T13:46:10;61.87;;;33.67;;
21128;SDS011;10722;51.910;8.352;2024-02-28T13:48:55;60.53;;;32.23;;
21128;SDS011;10722;51.910;8.352;2024-02-28T13:51:41;56.03;;;32.60;;
21128;SDS011;10722;51.910;8.352;2024-02-28T13:54:27;55.13;;;31.80;;
21128;SDS011;10722;51.910;8.352;2024-02-28T13:57:12;57.97;;;32.33;;
21128;SDS011;10722;51.910;8.352;2024-02-28T13:59:57;59.97;;;32.77;;
21128;SDS011;10722;51.910;8.352;2024-02-28T14:02:42;58.67;;;32.77;;
21128;SDS011;10722;51.910;8.352;2024-02-28T14:05:27;61.60;;;32.37;;
21128;SDS011;10722;51.910;8.352;2024-02-28T14:08:13;58.10;;;32.23;;
21128;SDS011;10722;51.910;8.352;2024-02-28T14:10:58;60.30;;;32.40;;
21128;SDS011;10722;51.910;8.352;2024-02-28T14:13:43;61.23;;;32.50;;
21128;SDS011;10722;51.910;8.352;2024-02-28T14:16:29;59.17;;;32.27;;
21128;SDS011;10722;51.910;8.352;2024-02-28T14:19:14;58.70;;;32.73;;
21128;SDS011;10722;51.910;8.352;2024-02-28T14:21:59;63.13;;;33.60;;
21128;SDS011;10722;51.910;8.352;2024-02-28T14:24:44;62.17;;;32.97;;
21128;SDS011;10722;51.910;8.352;2024-02-28T14:27:29;61.93;;;33.07;;
21128;SDS011;10722;51.910;8.352;2024-02-28T14:30:14;61.80;;;32.40;;
21128;SDS011;10722;51.910;8.352;2024-02-28T14:33:00;62.97;;;33.60;;
21128;SDS011;10722;51.910;8.352;2024-02-28T14:35:45;62.10;;;33.03;;
21128;SDS011;10722;51.910;8.352;2024-02-28T14:38:29;62.27;;;33.60;;
21128;SDS011;10722;51.910;8.352;2024-02-28T14:41:14;66.27;;;33.57;;
21128;SDS011;10722;51.910;8.352;2024-02-28T14:44:00;64.07;;;33.47;;
21128;SDS011;10722;51.910;8.352;2024-02-28T14:46:45;65.37;;;33.17;;
21128;SDS011;10722;51.910;8.352;2024-02-28T14:49:30;64.93;;;33.87;;
21128;SDS011;10722;51.910;8.352;2024-02-28T14:52:15;65.03;;;33.90;;
21128;SDS011;10722;51.910;8.352;2024-02-28T14:55:00;61.93;;;32.63;;
21128;SDS011;10722;51.910;8.352;2024-02-28T14:57:45;62.30;;;33.97;;
21128;SDS011;10722;51.910;8.352;2024-02-28T15:00:30;62.97;;;33.20;;
21128;SDS011;10722;51.910;8.352;2024-02-28T15:03:16;58.73;;;32.00;;
21128;SDS011;10722;51.910;8.352;2024-02-28T15:06:01;61.90;;;32.20;;
21128;SDS011;10722;51.910;8.352;2024-02-28T15:08:46;58.90;;;31.47;;
21128;SDS011;10722;51.910;8.352;2024-02-28T15:11:31;61.50;;;32.17;;
21128;SDS011;10722;51.910;8.352;2024-02-28T15:14:16;63.27;;;33.30;;
21128;SDS011;10722;51.910;8.352;2024-02-28T15:17:01;63.80;;;33.67;;
21128;SDS011;10722;51.910;8.352;2024-02-28T15:19:47;61.70;;;32.53;;
21128;SDS011;10722;51.910;8.352;2024-02-28T15:22:32;67.30;;;33.43;;
21128;SDS011;10722;51.910;8.352;2024-02-28T15:25:17;64.90;;;33.87;;
21128;SDS011;10722;51.910;8.352;2024-02-28T15:28:02;60.97;;;33.07;;
21128;SDS011;10722;51.910;8.352;2024-02-28T15:30:47;62.60;;;33.27;;
21128;SDS011;10722;51.910;8.352;2024-02-28T15:33:32;64.17;;;33.30;;
21128;SDS011;10722;51.910;8.352;2024-02-28T15:36:17;62.30;;;32.57;;
21128;SDS011;10722;51.910;8.352;2024-02-28T15:39:02;63.77;;;33.40;;
21128;SDS011;10722;51.910;8.352;2024-02-28T15:41:47;62.83;;;33.03;;
21128;SDS011;10722;51.910;8.352;2024-02-28T15:44:32;61.00;;;31.83;;
21128;SDS011;10722;51.910;8.352;2024-02-28T15:47:17;63.30;;;32.63;;
21128;SDS011;10722;51.910;8.352;2024-02-28T15:50:02;63.43;;;32.27;;
21128;SDS011;10722;51.910;8.352;2024-02-28T15:52:47;61.47;;;32.30;;
21128;SDS011;10722;51.910;8.352;2024-02-28T15:55:33;61.60;;;32.33;;
21128;SDS011;10722;51.910;8.352;2024-02-28T15:58:18;62.00;;;32.90;;